Time;durP1;ratioP1;P1;durP2;ratioP2;P2;SDS_P1;SDS_P2;PMS_P1;PMS_P2;Temp;Humidity;BMP_temperature;BMP_pressure;BME280_temperature;BME280_humidity;BME280_pressure;Samples;Min_cycle;Max_cycle;Signal;HPM_P1;HPM_P2
2023/03/04 00:01:20;;;;;;;20.27;2.63;;;;;;;;;;4977769;28;20271;-75
2023/03/04 00:03:46;;;;;;;16.38;2.75;;;;;;;;;;4968731;28;20173;-75
2023/03/04 00:06:12;;;;;;;21.67;3.53;;;;;;;;;;4977782;28;20077;-75
2023/03/04 00:08:38;;;;;;;23.17;4.10;;;;;;;;;;4987577;28;20054;-75
2023/03/04 00:11:04;;;;;;;15.45;2.83;;;;;;;;;;4988522;28;20042;-76
2023/03/04 00:13:30;;;;;;;21.40;2.40;;;;;;;;;;4983088;28;20061;-74
2023/03/04 00:15:56;;;;;;;16.10;2.38;;;;;;;;;;4983027;28;20479;-75
2023/03/04 00:18:23;;;;;;;27.52;2.67;;;;;;;;;;4988652;28;20037;-74
2023/03/04 00:20:49;;;;;;;29.05;2.70;;;;;;;;;;4989663;28;20080;-74
2023/03/04 00:23:16;;;;;;;22.38;2.75;;;;;;;;;;4977105;28;20466;-74
2023/03/04 00:25:42;;;;;;;21.80;2.22;;;;;;;;;;4984156;28;20091;-74
2023/03/04 00:28:08;;;;;;;14.05;2.45;;;;;;;;;;4986883;28;20030;-75
2023/03/04 00:30:34;;;;;;;12.50;1.73;;;;;;;;;;4988337;28;20050;-75
2023/03/04 00:33:00;;;;;;;16.75;2.20;;;;;;;;;;4988900;28;20026;-75
2023/03/04 00:35:26;;;;;;;25.10;4.63;;;;;;;;;;4997822;28;20542;-75
2023/03/04 00:37:52;;;;;;;13.82;2.10;;;;;;;;;;4969925;28;20034;-74
2023/03/04 00:40:18;;;;;;;18.02;4.28;;;;;;;;;;4994537;28;20105;-75
2023/03/04 00:42:44;;;;;;;15.27;1.92;;;;;;;;;;4984713;28;20027;-75
2023/03/04 00:45:11;;;;;;;16.05;1.98;;;;;;;;;;4992973;28;20050;-76
2023/03/04 00:47:37;;;;;;;13.95;1.75;;;;;;;;;;4993695;28;20113;-75
2023/03/04 00:50:03;;;;;;;12.10;1.83;;;;;;;;;;4989225;28;20386;-75
2023/03/04 00:52:29;;;;;;;8.02;1.60;;;;;;;;;;4993972;28;20161;-75
2023/03/04 00:54:57;;;;;;;12.23;2.15;;;;;;;;;;4990063;28;20570;-75
2023/03/04 00:57:23;;;;;;;13.18;2.25;;;;;;;;;;4995222;28;20118;-75
2023/03/04 00:59:49;;;;;;;17.50;1.92;;;;;;;;;;4989668;28;20027;-76
2023/03/04 01:02:15;;;;;;;14.00;1.85;;;;;;;;;;4985529;28;20034;-76
2023/03/04 01:04:42;;;;;;;18.73;2.58;;;;;;;;;;4989494;28;20510;-76
2023/03/04 01:07:08;;;;;;;16.10;2.40;;;;;;;;;;4995469;28;20542;-76
2023/03/04 01:09:34;;;;;;;17.77;3.45;;;;;;;;;;4991516;28;20066;-76
2023/03/04 01:12:00;;;;;;;16.15;2.03;;;;;;;;;;4993334;28;20502;-75
2023/03/04 01:14:26;;;;;;;14.82;2.00;;;;;;;;;;4974710;28;20566;-75
2023/03/04 01:16:52;;;;;;;17.88;2.85;;;;;;;;;;4993129;28;20030;-75
2023/03/04 01:19:18;;;;;;;18.23;2.22;;;;;;;;;;4990343;28;20498;-75
2023/03/04 01:21:44;;;;;;;19.17;2.25;;;;;;;;;;4989103;28;20475;-75
2023/03/04 01:24:10;;;;;;;13.82;2.40;;;;;;;;;;4975411;28;20394;-75
2023/03/04 01:26:38;;;;;;;19.80;3.00;;;;;;;;;;4992570;28;20488;-75
2023/03/04 01:29:04;;;;;;;15.68;2.17;;;;;;;;;;4992798;28;20383;-75
2023/03/04 01:31:31;;;;;;;11.85;1.80;;;;;;;;;;4981741;28;20042;-75
2023/03/04 01:33:57;;;;;;;18.67;2.00;;;;;;;;;;4972658;28;20494;-74
2023/03/04 01:36:23;;;;;;;14.85;2.47;;;;;;;;;;4991495;28;20026;-74
2023/03/04 01:38:49;;;;;;;16.27;3.15;;;;;;;;;;4993242;28;20327;-74
2023/03/04 01:41:17;;;;;;;14.23;2.20;;;;;;;;;;4992205;28;20560;-74
2023/03/04 01:43:43;;;;;;;13.13;2.22;;;;;;;;;;4991204;28;20073;-74
2023/03/04 01:46:13;;;;;;;14.05;2.58;;;;;;;;;;4989158;28;20046;-75
2023/03/04 01:48:39;;;;;;;12.10;1.75;;;;;;;;;;4991500;28;20474;-74
2023/03/04 01:51:09;;;;;;;13.40;2.00;;;;;;;;;;4959870;28;20058;-75
2023/03/04 01:53:35;;;;;;;10.63;1.85;;;;;;;;;;4985149;28;20118;-74
2023/03/04 01:56:04;;;;;;;11.93;2.53;;;;;;;;;;4986854;28;20031;-74
2023/03/04 01:58:31;;;;;;;16.67;2.75;;;;;;;;;;4993513;28;20026;-74
2023/03/04 02:00:57;;;;;;;18.13;2.60;;;;;;;;;;4987235;28;20027;-74
2023/03/04 02:03:24;;;;;;;19.08;3.35;;;;;;;;;;4990385;28;20376;-74
2023/03/04 02:05:51;;;;;;;12.82;2.53;;;;;;;;;;4993403;28;20034;-74
2023/03/04 02:08:18;;;;;;;13.65;1.80;;;;;;;;;;4971481;28;20038;-75
2023/03/04 02:10:45;;;;;;;14.93;1.92;;;;;;;;;;4992077;28;20114;-75
2023/03/04 02:13:11;;;;;;;10.23;2.45;;;;;;;;;;4984814;28;20194;-74
2023/03/04 02:15:38;;;;;;;14.13;2.60;;;;;;;;;;4986952;28;20031;-74
2023/03/04 02:18:12;;;;;;;14.55;1.83;;;;;;;;;;4986149;28;20029;-74
2023/03/04 02:20:55;;;;;;;11.18;2.20;;;;;;;;;;4993181;28;20137;-73
2023/03/04 02:23:21;;;;;;;13.27;2.03;;;;;;;;;;4990974;28;20022;-73
2023/03/04 02:25:51;;;;;;;13.15;2.88;;;;;;;;;;4972182;28;20065;-73
2023/03/04 02:28:18;;;;;;;16.25;1.98;;;;;;;;;;4985754;28;20038;-73
2023/03/04 02:30:44;;;;;;;9.85;1.70;;;;;;;;;;4982968;28;20098;-73
2023/03/04 02:33:14;;;;;;;14.80;2.63;;;;;;;;;;4982860;28;20038;-74
2023/03/04 02:35:40;;;;;;;13.13;2.17;;;;;;;;;;4990827;28;20041;-74
2023/03/04 02:38:06;;;;;;;18.70;2.90;;;;;;;;;;4984514;28;20059;-74
2023/03/04 02:40:33;;;;;;;12.43;2.05;;;;;;;;;;4988742;28;20031;-74
2023/03/04 02:43:00;;;;;;;17.60;3.28;;;;;;;;;;4989594;28;20108;-74
2023/03/04 02:45:29;;;;;;;15.20;1.65;;;;;;;;;;4989699;28;20077;-74
2023/03/04 02:47:55;;;;;;;12.70;2.25;;;;;;;;;;4981549;28;20031;-74
2023/03/04 02:50:22;;;;;;;16.08;1.48;;;;;;;;;;4991105;28;20092;-74
2023/03/04 02:52:48;;;;;;;11.27;1.88;;;;;;;;;;4990310;28;20038;-74
2023/03/04 02:55:14;;;;;;;10.98;1.83;;;;;;;;;;4992297;28;20042;-75
2023/03/04 02:57:40;;;;;;;14.18;2.03;;;;;;;;;;4988816;28;20085;-74
2023/03/04 03:00:06;;;;;;;8.80;1.40;;;;;;;;;;4987641;28;20498;-74
2023/03/04 03:02:32;;;;;;;14.90;2.38;;;;;;;;;;4994665;28;20025;-74
2023/03/04 03:04:58;;;;;;;13.00;2.05;;;;;;;;;;4990025;28;20041;-75
2023/03/04 03:07:24;;;;;;;14.60;2.67;;;;;;;;;;4990281;28;20579;-75
2023/03/04 03:09:51;;;;;;;12.38;1.52;;;;;;;;;;4973138;28;20105;-75
2023/03/04 03:12:17;;;;;;;24.45;2.78;;;;;;;;;;4984633;28;20038;-75
2023/03/04 03:14:43;;;;;;;11.85;2.25;;;;;;;;;;4991268;28;20038;-75
2023/03/04 03:17:09;;;;;;;20.48;2.63;;;;;;;;;;4962703;28;20065;-74
2023/03/04 03:19:35;;;;;;;22.52;2.40;;;;;;;;;;4967320;28;20031;-75
2023/03/04 03:22:01;;;;;;;13.38;2.35;;;;;;;;;;4990361;28;20034;-73
2023/03/04 03:24:27;;;;;;;20.10;2.97;;;;;;;;;;4986767;28;20079;-73
2023/03/04 03:26:53;;;;;;;14.23;3.75;;;;;;;;;;4991678;28;20035;-75
2023/03/04 03:29:19;;;;;;;17.80;3.03;;;;;;;;;;4988997;28;20033;-73
2023/03/04 03:31:45;;;;;;;10.25;1.90;;;;;;;;;;4978296;28;20151;-73
2023/03/04 03:34:11;;;;;;;13.55;2.00;;;;;;;;;;4984922;28;20058;-73
2023/03/04 03:36:37;;;;;;;16.15;2.42;;;;;;;;;;4990940;28;20034;-73
2023/03/04 03:39:04;;;;;;;11.55;2.30;;;;;;;;;;4990941;28;20053;-74
2023/03/04 03:41:30;;;;;;;16.02;2.35;;;;;;;;;;4984069;28;20041;-73
2023/03/04 03:43:56;;;;;;;9.80;1.38;;;;;;;;;;4981189;28;20038;-74
2023/03/04 03:46:22;;;;;;;10.80;1.60;;;;;;;;;;4986419;28;20471;-73
2023/03/04 03:48:48;;;;;;;17.20;2.60;;;;;;;;;;4989477;28;20034;-74
2023/03/04 03:51:15;;;;;;;17.10;2.10;;;;;;;;;;4988973;28;20046;-73
2023/03/04 03:53:41;;;;;;;7.82;1.45;;;;;;;;;;4989087;28;20399;-73
2023/03/04 03:56:07;;;;;;;12.38;1.98;;;;;;;;;;4988935;28;20553;-74
2023/03/04 03:58:33;;;;;;;15.23;3.13;;;;;;;;;;4988306;28;20033;-74
2023/03/04 04:00:59;;;;;;;14.63;1.73;;;;;;;;;;4987469;28;20041;-74
2023/03/04 04:03:25;;;;;;;16.70;1.65;;;;;;;;;;4990322;28;20034;-74
2023/03/04 04:05:51;;;;;;;11.77;2.05;;;;;;;;;;4986445;28;20448;-74
2023/03/04 04:08:17;;;;;;;14.88;1.88;;;;;;;;;;4966658;28;20475;-74
2023/03/04 04:10:44;;;;;;;18.83;2.22;;;;;;;;;;4982055;28;20065;-74
2023/03/04 04:13:10;;;;;;;14.25;2.17;;;;;;;;;;4978559;28;20093;-74
2023/03/04 04:15:37;;;;;;;13.50;1.73;;;;;;;;;;4980557;28;20468;-74
2023/03/04 04:18:04;;;;;;;10.25;1.80;;;;;;;;;;4986483;28;20390;-74
2023/03/04 04:20:30;;;;;;;20.90;3.08;;;;;;;;;;4987855;28;20022;-73
2023/03/04 04:22:56;;;;;;;6.95;1.33;;;;;;;;;;4990060;28;20030;-73
2023/03/04 04:25:22;;;;;;;9.82;1.45;;;;;;;;;;4989456;28;20375;-73
2023/03/04 04:27:48;;;;;;;10.88;1.27;;;;;;;;;;4987570;28;20113;-74
2023/03/04 04:30:14;;;;;;;11.25;1.48;;;;;;;;;;4986400;28;20031;-74
2023/03/04 04:32:40;;;;;;;12.57;1.38;;;;;;;;;;4981359;28;20034;-73
2023/03/04 04:35:07;;;;;;;13.40;2.75;;;;;;;;;;4993111;28;20117;-74
2023/03/04 04:37:33;;;;;;;11.23;2.22;;;;;;;;;;4989696;28;20034;-74
2023/03/04 04:39:59;;;;;;;18.13;1.90;;;;;;;;;;4989707;28;20033;-74
2023/03/04 04:42:25;;;;;;;10.73;1.30;;;;;;;;;;4986251;28;20115;-74
2023/03/04 04:44:51;;;;;;;16.80;1.75;;;;;;;;;;4973837;28;20053;-74
2023/03/04 04:47:17;;;;;;;4.00;0.70;;;;;;;;;;4976997;28;20434;-74
2023/03/04 04:49:44;;;;;;;8.15;0.90;;;;;;;;;;4991249;28;20037;-74
2023/03/04 04:52:10;;;;;;;11.57;1.95;;;;;;;;;;4969358;28;20046;-75
2023/03/04 04:54:36;;;;;;;8.45;1.42;;;;;;;;;;4990572;28;20030;-74
2023/03/04 04:57:03;;;;;;;8.70;1.20;;;;;;;;;;4988368;28;20066;-74
2023/03/04 04:59:29;;;;;;;3.60;1.10;;;;;;;;;;4989340;28;20026;-74
2023/03/04 05:01:55;;;;;;;11.23;1.38;;;;;;;;;;4981329;28;20034;-74
2023/03/04 05:04:21;;;;;;;9.30;0.80;;;;;;;;;;4984623;28;20034;-74
2023/03/04 05:06:47;;;;;;;5.78;1.35;;;;;;;;;;4989737;28;20088;-74
2023/03/04 05:09:13;;;;;;;10.73;1.52;;;;;;;;;;4983752;28;20035;-75
2023/03/04 05:11:39;;;;;;;6.32;1.08;;;;;;;;;;4973478;28;20049;-75
2023/03/04 05:14:05;;;;;;;12.55;1.60;;;;;;;;;;4981906;28;20039;-75
2023/03/04 05:16:31;;;;;;;9.68;1.70;;;;;;;;;;4979789;28;20038;-74
2023/03/04 05:18:58;;;;;;;8.95;1.30;;;;;;;;;;4971070;28;20038;-74
2023/03/04 05:21:24;;;;;;;13.00;1.08;;;;;;;;;;4990059;28;20117;-73
2023/03/04 05:23:51;;;;;;;11.18;1.63;;;;;;;;;;4989122;28;20042;-74
2023/03/04 05:26:17;;;;;;;8.23;0.93;;;;;;;;;;4963792;28;20049;-74
2023/03/04 05:28:43;;;;;;;5.28;1.23;;;;;;;;;;4984988;28;20030;-74
2023/03/04 05:31:10;;;;;;;7.47;1.17;;;;;;;;;;4985880;28;20073;-74
2023/03/04 05:33:37;;;;;;;11.82;1.33;;;;;;;;;;4975507;28;20109;-74
2023/03/04 05:36:04;;;;;;;6.85;1.02;;;;;;;;;;4986208;28;20157;-74
2023/03/04 05:38:30;;;;;;;5.25;0.80;;;;;;;;;;4982155;28;20077;-74
2023/03/04 05:40:57;;;;;;;6.63;1.40;;;;;;;;;;4992585;28;20380;-74
2023/03/04 05:43:23;;;;;;;3.97;0.77;;;;;;;;;;4986293;28;20031;-74
2023/03/04 05:45:50;;;;;;;7.07;1.00;;;;;;;;;;4980091;28;20092;-74
2023/03/04 05:48:17;;;;;;;10.07;1.98;;;;;;;;;;4989366;28;20026;-74
2023/03/04 05:50:43;;;;;;;12.15;1.98;;;;;;;;;;4984116;28;20105;-74
2023/03/04 05:53:09;;;;;;;9.20;1.40;;;;;;;;;;4994291;28;20030;-74
2023/03/04 05:55:37;;;;;;;8.90;0.85;;;;;;;;;;4990885;28;20030;-74
2023/03/04 05:58:03;;;;;;;6.50;1.20;;;;;;;;;;4992579;28;20062;-74
2023/03/04 06:00:29;;;;;;;15.18;1.65;;;;;;;;;;4987254;28;20034;-74
2023/03/04 06:02:55;;;;;;;9.77;2.00;;;;;;;;;;4990963;28;20034;-74
2023/03/04 06:05:21;;;;;;;16.38;1.40;;;;;;;;;;4987515;28;20038;-74
2023/03/04 06:07:47;;;;;;;10.32;1.30;;;;;;;;;;4993056;28;20038;-75
2023/03/04 06:10:14;;;;;;;12.15;2.00;;;;;;;;;;4991988;28;20085;-75
2023/03/04 06:12:41;;;;;;;9.52;1.20;;;;;;;;;;4984346;28;20413;-74
2023/03/04 06:15:08;;;;;;;12.57;2.33;;;;;;;;;;4988590;28;20062;-72
2023/03/04 06:17:34;;;;;;;13.75;1.20;;;;;;;;;;4981126;28;20371;-73
2023/03/04 06:20:00;;;;;;;7.82;1.38;;;;;;;;;;4985808;28;20375;-72
2023/03/04 06:22:27;;;;;;;9.77;1.05;;;;;;;;;;4984951;28;20030;-74
2023/03/04 06:24:53;;;;;;;10.25;1.70;;;;;;;;;;4987383;28;20126;-74
2023/03/04 06:27:19;;;;;;;14.35;1.50;;;;;;;;;;4982582;28;20034;-74
2023/03/04 06:29:46;;;;;;;13.27;3.75;;;;;;;;;;4984975;28;20425;-73
2023/03/04 06:32:12;;;;;;;12.63;2.42;;;;;;;;;;4989951;28;20030;-75
2023/03/04 06:34:38;;;;;;;12.05;1.73;;;;;;;;;;4983280;28;20471;-76
2023/03/04 06:37:04;;;;;;;17.50;3.08;;;;;;;;;;4983811;28;20038;-75
2023/03/04 06:39:30;;;;;;;12.25;2.38;;;;;;;;;;4987428;28;20471;-73
2023/03/04 06:41:56;;;;;;;7.18;1.40;;;;;;;;;;4968965;28;20455;-74
2023/03/04 06:44:23;;;;;;;9.60;1.63;;;;;;;;;;4979711;28;20479;-74
2023/03/04 06:46:49;;;;;;;9.88;1.33;;;;;;;;;;4970858;28;20077;-74
2023/03/04 06:49:15;;;;;;;9.30;0.98;;;;;;;;;;4975154;28;20416;-74
2023/03/04 06:51:41;;;;;;;9.77;1.27;;;;;;;;;;4984355;28;20062;-74
2023/03/04 06:54:07;;;;;;;11.68;1.20;;;;;;;;;;4984993;28;20034;-75
2023/03/04 06:56:33;;;;;;;8.98;1.30;;;;;;;;;;4987078;28;20077;-73
2023/03/04 06:58:59;;;;;;;11.32;1.05;;;;;;;;;;4988792;28;20112;-74
2023/03/04 07:01:26;;;;;;;6.90;1.40;;;;;;;;;;4987691;28;20033;-73
2023/03/04 07:03:53;;;;;;;11.45;1.65;;;;;;;;;;4976673;28;20529;-76
2023/03/04 07:06:20;;;;;;;6.78;2.05;;;;;;;;;;4979616;28;20039;-77
2023/03/04 07:08:46;;;;;;;4.93;1.50;;;;;;;;;;4987523;28;20030;-75
2023/03/04 07:11:12;;;;;;;10.60;4.32;;;;;;;;;;4988958;28;20027;-75
2023/03/04 07:13:38;;;;;;;8.68;1.65;;;;;;;;;;4986767;28;20061;-73
2023/03/04 07:16:06;;;;;;;4.90;1.27;;;;;;;;;;4981442;28;20034;-76
2023/03/04 07:18:32;;;;;;;6.18;1.00;;;;;;;;;;4972915;28;20026;-75
2023/03/04 07:20:58;;;;;;;12.20;1.25;;;;;;;;;;4991523;28;20049;-75
2023/03/04 07:23:24;;;;;;;10.57;1.20;;;;;;;;;;4983883;28;20022;-74
2023/03/04 07:25:50;;;;;;;7.00;1.25;;;;;;;;;;4973708;28;20114;-75
2023/03/04 07:28:16;;;;;;;8.23;1.00;;;;;;;;;;4983359;28;20106;-75
2023/03/04 07:30:42;;;;;;;7.80;1.33;;;;;;;;;;4982306;28;20121;-75
2023/03/04 07:33:08;;;;;;;9.07;1.10;;;;;;;;;;4985204;28;20493;-74
2023/03/04 07:35:34;;;;;;;10.95;2.05;;;;;;;;;;4989810;28;20467;-74
2023/03/04 07:38:00;;;;;;;5.90;0.88;;;;;;;;;;4987483;28;20380;-74
2023/03/04 07:40:27;;;;;;;5.57;1.35;;;;;;;;;;4984873;28;20394;-73
2023/03/04 07:42:53;;;;;;;4.93;1.17;;;;;;;;;;4968667;28;20034;-75
2023/03/04 07:45:20;;;;;;;8.63;1.30;;;;;;;;;;4987619;28;20038;-75
2023/03/04 07:47:46;;;;;;;7.47;1.33;;;;;;;;;;4988649;28;20030;-74
2023/03/04 07:55:56;;;;;;;21.73;9.02;;;;;;;;;;4987927;28;20412;-75
2023/03/04 07:58:22;;;;;;;11.63;1.77;;;;;;;;;;4982315;28;20383;-73
2023/03/04 08:00:48;;;;;;;10.35;2.00;;;;;;;;;;4977644;28;20189;-75
2023/03/04 08:03:14;;;;;;;12.32;1.90;;;;;;;;;;4985269;28;20059;-75
2023/03/04 08:05:43;;;;;;;9.93;2.20;;;;;;;;;;4984082;28;20045;-75
2023/03/04 08:08:09;;;;;;;15.52;1.73;;;;;;;;;;4994114;28;20029;-75
2023/03/04 08:10:35;;;;;;;13.95;1.88;;;;;;;;;;4985658;28;20058;-75
2023/03/04 08:13:01;;;;;;;17.77;2.75;;;;;;;;;;4988647;28;20031;-75
2023/03/04 08:15:31;;;;;;;14.10;2.05;;;;;;;;;;4985796;28;20027;-74
2023/03/04 08:17:57;;;;;;;15.40;2.75;;;;;;;;;;4987897;28;20038;-74
2023/03/04 08:20:23;;;;;;;13.50;2.30;;;;;;;;;;4986968;28;20035;-75
2023/03/04 08:22:50;;;;;;;18.67;2.45;;;;;;;;;;4979895;28;20417;-76
2023/03/04 08:25:16;;;;;;;17.10;2.22;;;;;;;;;;4980006;28;20069;-73
2023/03/04 08:27:42;;;;;;;18.75;2.47;;;;;;;;;;4985027;28;20045;-75
2023/03/04 08:30:09;;;;;;;21.33;4.57;;;;;;;;;;4983557;28;20030;-75
2023/03/04 08:32:35;;;;;;;24.25;4.03;;;;;;;;;;4982703;28;20038;-74
2023/03/04 08:35:01;;;;;;;15.40;3.00;;;;;;;;;;4969780;28;20038;-75
2023/03/04 08:37:27;;;;;;;18.02;2.55;;;;;;;;;;4983344;28;20038;-73
2023/03/04 08:39:53;;;;;;;10.07;1.90;;;;;;;;;;4989385;28;20034;-74
2023/03/04 08:42:19;;;;;;;11.43;3.17;;;;;;;;;;4974867;28;20399;-73
2023/03/04 08:44:45;;;;;;;22.23;3.88;;;;;;;;;;4982203;28;20112;-74
2023/03/04 08:47:12;;;;;;;14.88;3.50;;;;;;;;;;4984346;28;20038;-73
2023/03/04 08:49:38;;;;;;;19.60;2.75;;;;;;;;;;4986022;28;20463;-74
2023/03/04 08:52:04;;;;;;;21.33;2.88;;;;;;;;;;4986848;28;20046;-74
2023/03/04 08:54:30;;;;;;;22.05;3.67;;;;;;;;;;4987206;28;20495;-73
2023/03/04 08:56:56;;;;;;;15.23;3.08;;;;;;;;;;4973272;28;20030;-73
2023/03/04 08:59:22;;;;;;;17.35;3.53;;;;;;;;;;4992153;28;20113;-72
2023/03/04 09:01:48;;;;;;;12.80;2.65;;;;;;;;;;4989179;28;20403;-73
2023/03/04 09:04:14;;;;;;;23.17;4.10;;;;;;;;;;4988215;28;20387;-73
2023/03/04 09:06:41;;;;;;;19.50;2.50;;;;;;;;;;4981028;28;20027;-75
2023/03/04 09:09:07;;;;;;;28.40;9.10;;;;;;;;;;4989135;28;20240;-73
2023/03/04 09:11:33;;;;;;;18.33;4.70;;;;;;;;;;4974441;28;20039;-74
2023/03/04 09:13:59;;;;;;;12.15;1.92;;;;;;;;;;4974585;28;20214;-74
2023/03/04 09:16:25;;;;;;;14.40;2.53;;;;;;;;;;4989299;28;20025;-75
2023/03/04 09:18:51;;;;;;;14.43;2.47;;;;;;;;;;4993123;28;20374;-74
2023/03/04 09:21:18;;;;;;;15.40;1.98;;;;;;;;;;4994806;28;20088;-74
2023/03/04 09:23:44;;;;;;;11.88;2.47;;;;;;;;;;4984686;28;20034;-72
2023/03/04 09:26:14;;;;;;;15.55;2.75;;;;;;;;;;4985855;28;20046;-73
2023/03/04 09:28:40;;;;;;;15.27;2.05;;;;;;;;;;4990307;28;20125;-72
2023/03/04 09:31:14;;;;;;;13.48;2.42;;;;;;;;;;4986093;28;20077;-73
2023/03/04 09:33:41;;;;;;;15.43;2.15;;;;;;;;;;4969389;28;20365;-74
2023/03/04 09:36:08;;;;;;;17.23;3.10;;;;;;;;;;4992467;28;20038;-74
2023/03/04 09:38:35;;;;;;;15.82;2.70;;;;;;;;;;4993832;28;20081;-74
2023/03/04 09:41:04;;;;;;;24.02;4.07;;;;;;;;;;4992192;28;20034;-74
2023/03/04 09:43:31;;;;;;;20.77;3.33;;;;;;;;;;4989846;28;20423;-74
2023/03/04 09:45:59;;;;;;;19.45;3.50;;;;;;;;;;4985176;28;20023;-74
2023/03/04 09:48:27;;;;;;;22.58;3.38;;;;;;;;;;4991117;28;20085;-74
2023/03/04 09:50:56;;;;;;;23.30;3.17;;;;;;;;;;4991663;28;20467;-74
2023/03/04 09:53:25;;;;;;;15.88;3.17;;;;;;;;;;4992604;28;20018;-74
2023/03/04 09:55:51;;;;;;;16.85;4.40;;;;;;;;;;4993779;28;20057;-74
2023/03/04 09:58:36;;;;;;;14.55;2.38;;;;;;;;;;4992863;28;20023;-74
2023/03/04 10:01:09;;;;;;;12.88;2.05;;;;;;;;;;4990428;28;20121;-75
2023/03/04 10:04:01;;;;;;;12.75;2.40;;;;;;;;;;4992519;28;20050;-75
2023/03/04 10:06:28;;;;;;;16.50;2.77;;;;;;;;;;4990446;28;20045;-75
2023/03/04 10:08:54;;;;;;;13.80;2.33;;;;;;;;;;4974742;28;20030;-75
2023/03/04 10:11:26;;;;;;;24.33;3.38;;;;;;;;;;4991808;28;20118;-75
2023/03/04 10:14:01;;;;;;;15.13;1.83;;;;;;;;;;4989796;28;20050;-75
2023/03/04 10:16:31;;;;;;;14.32;1.95;;;;;;;;;;4975015;28;20042;-75
2023/03/04 10:19:08;;;;;;;12.15;1.83;;;;;;;;;;4974801;28;20027;-75
2023/03/04 10:21:38;;;;;;;14.65;2.45;;;;;;;;;;4977291;28;20031;-75
2023/03/04 10:24:12;;;;;;;11.93;1.75;;;;;;;;;;4991546;28;20478;-75
2023/03/04 10:26:38;;;;;;;10.68;1.60;;;;;;;;;;4991837;28;20104;-75
2023/03/04 10:29:06;;;;;;;13.07;2.10;;;;;;;;;;5013137;28;20057;-76
2023/03/04 10:31:36;;;;;;;8.30;1.60;;;;;;;;;;4994374;28;20038;-76
2023/03/04 10:34:05;;;;;;;4.60;0.93;;;;;;;;;;4992086;28;20501;-76
2023/03/04 10:36:31;;;;;;;6.60;1.10;;;;;;;;;;4992087;28;20030;-76
2023/03/04 10:39:16;;;;;;;10.38;1.48;;;;;;;;;;4993360;28;20077;-76
2023/03/04 10:41:44;;;;;;;8.40;0.95;;;;;;;;;;4990206;28;20022;-75
2023/03/04 10:44:10;;;;;;;14.77;1.25;;;;;;;;;;4991250;28;20474;-75
2023/03/04 10:46:40;;;;;;;8.05;1.38;;;;;;;;;;4984748;28;20145;-75
2023/03/04 10:49:07;;;;;;;9.98;1.30;;;;;;;;;;4991768;28;20038;-75
2023/03/04 10:51:41;;;;;;;7.53;1.08;;;;;;;;;;4992925;28;20522;-75
2023/03/04 10:54:10;;;;;;;27.92;4.63;;;;;;;;;;4992914;28;20415;-76
2023/03/04 10:56:38;;;;;;;17.85;2.78;;;;;;;;;;4989780;28;20510;-76
2023/03/04 10:59:22;;;;;;;15.55;1.83;;;;;;;;;;4975448;28;20082;-77
2023/03/04 11:01:50;;;;;;;13.02;1.88;;;;;;;;;;4985295;28;20038;-75
2023/03/04 11:04:19;;;;;;;13.60;2.63;;;;;;;;;;4984733;28;20069;-74
2023/03/04 11:06:46;;;;;;;10.18;1.88;;;;;;;;;;4980765;28;20034;-73
2023/03/04 11:09:22;;;;;;;17.35;3.40;;;;;;;;;;4977391;28;20500;-74
2023/03/04 11:11:49;;;;;;;18.52;3.75;;;;;;;;;;4982318;28;20022;-75
2023/03/04 11:14:21;;;;;;;14.93;2.28;;;;;;;;;;4989842;28;20081;-73
2023/03/04 11:16:52;;;;;;;13.05;2.17;;;;;;;;;;4976463;28;20049;-74
2023/03/04 11:19:20;;;;;;;12.63;2.90;;;;;;;;;;4966296;28;20034;-73
2023/03/04 11:21:47;;;;;;;11.05;2.13;;;;;;;;;;4984601;28;20044;-72
2023/03/04 11:24:24;;;;;;;15.85;2.10;;;;;;;;;;4986002;28;20034;-73
2023/03/04 11:27:01;;;;;;;19.77;3.25;;;;;;;;;;4969083;28;20039;-74
2023/03/04 11:29:30;;;;;;;13.68;3.17;;;;;;;;;;4983282;28;20034;-73
2023/03/04 11:32:01;;;;;;;13.23;2.95;;;;;;;;;;4983018;28;20038;-75
2023/03/04 11:34:27;;;;;;;17.15;2.40;;;;;;;;;;4983482;28;20030;-76
2023/03/04 11:37:00;;;;;;;12.70;2.60;;;;;;;;;;4985164;28;20371;-75
2023/03/04 11:39:33;;;;;;;23.45;3.83;;;;;;;;;;4985406;28;20027;-76
2023/03/04 11:42:03;;;;;;;10.15;1.75;;;;;;;;;;4980240;28;20072;-75
2023/03/04 11:44:29;;;;;;;13.55;2.15;;;;;;;;;;4966616;28;20042;-75
2023/03/04 11:46:58;;;;;;;21.10;3.17;;;;;;;;;;4980643;28;20096;-76
2023/03/04 11:49:37;;;;;;;17.52;2.78;;;;;;;;;;4982916;28;20113;-75
2023/03/04 11:52:18;;;;;;;15.82;2.20;;;;;;;;;;4980904;28;20074;-77
2023/03/04 11:54:47;;;;;;;14.13;3.25;;;;;;;;;;4966409;28;20026;-76
2023/03/04 11:57:32;;;;;;;20.65;4.45;;;;;;;;;;4979854;28;20050;-78
2023/03/04 12:00:16;;;;;;;14.20;1.92;;;;;;;;;;4970938;28;20038;-79
2023/03/04 12:03:02;;;;;;;15.77;2.88;;;;;;;;;;4992141;28;20026;-76
2023/03/04 12:05:53;;;;;;;20.95;4.57;;;;;;;;;;4991751;28;20037;-77
2023/03/04 12:08:22;;;;;;;20.80;3.25;;;;;;;;;;4989730;28;20081;-77
2023/03/04 12:10:55;;;;;;;23.60;2.95;;;;;;;;;;4992117;28;20023;-79
2023/03/04 12:13:47;;;;;;;29.15;2.80;;;;;;;;;;4991329;28;20537;-76
2023/03/04 12:16:31;;;;;;;15.18;2.90;;;;;;;;;;4961209;28;20490;-77
2023/03/04 12:19:21;;;;;;;17.05;3.47;;;;;;;;;;4991610;28;20049;-78
2023/03/04 12:22:05;;;;;;;15.57;2.00;;;;;;;;;;4981251;28;20034;-80
2023/03/04 12:24:31;;;;;;;12.95;4.38;;;;;;;;;;4990731;28;20042;-76
2023/03/04 12:26:57;;;;;;;11.70;2.65;;;;;;;;;;4991102;28;20037;-76
2023/03/04 12:29:33;;;;;;;14.48;2.30;;;;;;;;;;4989789;28;20058;-76
2023/03/04 12:32:17;;;;;;;21.85;3.03;;;;;;;;;;4977356;28;20062;-76
2023/03/04 12:35:02;;;;;;;16.35;1.75;;;;;;;;;;4993522;28;20081;-77
2023/03/04 12:37:28;;;;;;;16.50;2.42;;;;;;;;;;4986259;28;20523;-76
2023/03/04 12:39:54;;;;;;;21.23;3.90;;;;;;;;;;4993831;28;20026;-76
2023/03/04 12:42:26;;;;;;;13.88;2.72;;;;;;;;;;4971915;28;20042;-77
2023/03/04 12:44:59;;;;;;;14.68;2.25;;;;;;;;;;4992697;28;20037;-76
2023/03/04 12:47:40;;;;;;;19.77;2.65;;;;;;;;;;4974262;28;20038;-76
2023/03/04 12:50:24;;;;;;;19.35;4.00;;;;;;;;;;4977512;28;20023;-77
2023/03/04 12:53:02;;;;;;;11.77;2.42;;;;;;;;;;4975537;28;20046;-77
2023/03/04 12:55:38;;;;;;;12.98;2.03;;;;;;;;;;4996853;28;20376;-76
2023/03/04 12:58:06;;;;;;;10.95;1.88;;;;;;;;;;5001752;28;20074;-79
2023/03/04 13:00:51;;;;;;;13.05;2.10;;;;;;;;;;4991939;28;20041;-77
2023/03/04 13:03:17;;;;;;;11.77;2.05;;;;;;;;;;4991280;28;20057;-78
2023/03/04 13:05:49;;;;;;;11.60;2.47;;;;;;;;;;4988311;28;20479;-78
2023/03/04 13:08:24;;;;;;;17.75;2.70;;;;;;;;;;4994590;28;20130;-77
2023/03/04 13:10:51;;;;;;;14.07;2.03;;;;;;;;;;4977421;28;20031;-77
2023/03/04 13:13:37;;;;;;;15.52;2.67;;;;;;;;;;4977712;28;20486;-77
2023/03/04 13:16:04;;;;;;;14.43;2.67;;;;;;;;;;4987345;28;20026;-78
2023/03/04 13:18:35;;;;;;;16.45;2.45;;;;;;;;;;4992074;28;20457;-77
2023/03/04 13:21:14;;;;;;;12.75;2.40;;;;;;;;;;4976409;28;20117;-76
2023/03/04 13:23:40;;;;;;;18.77;3.75;;;;;;;;;;4993476;28;20033;-77
2023/03/04 13:26:14;;;;;;;13.43;2.00;;;;;;;;;;4994437;28;20031;-76
2023/03/04 13:28:40;;;;;;;23.45;2.95;;;;;;;;;;4990206;28;20387;-76
2023/03/04 13:31:11;;;;;;;14.38;2.95;;;;;;;;;;4984427;28;20045;-77
2023/03/04 13:33:37;;;;;;;12.90;2.67;;;;;;;;;;4985071;28;20034;-76
2023/03/04 13:36:25;;;;;;;19.88;3.05;;;;;;;;;;4996341;28;20033;-76
2023/03/04 13:39:18;;;;;;;17.55;2.88;;;;;;;;;;4992465;28;20475;-75
2023/03/04 13:41:48;;;;;;;13.70;2.30;;;;;;;;;;4988683;28;20046;-76
2023/03/04 13:44:33;;;;;;;15.70;2.33;;;;;;;;;;4984754;28;20041;-75
2023/03/04 13:47:07;;;;;;;13.00;2.72;;;;;;;;;;4987163;28;20033;-76
2023/03/04 13:49:33;;;;;;;9.15;1.90;;;;;;;;;;4985347;28;20051;-76
2023/03/04 13:52:19;;;;;;;12.88;2.08;;;;;;;;;;4988399;28;20061;-77
2023/03/04 13:54:45;;;;;;;11.80;3.00;;;;;;;;;;4994167;28;20031;-76
2023/03/04 13:57:19;;;;;;;9.57;2.28;;;;;;;;;;4979749;28;20171;-76
2023/03/04 13:59:49;;;;;;;11.77;2.78;;;;;;;;;;4988812;28;20109;-76
2023/03/04 14:02:24;;;;;;;12.00;3.60;;;;;;;;;;4989006;28;20146;-77
2023/03/04 14:04:53;;;;;;;21.60;2.97;;;;;;;;;;4993502;28;20030;-77
2023/03/04 14:07:38;;;;;;;17.77;3.78;;;;;;;;;;4992846;28;20065;-76
2023/03/04 14:10:07;;;;;;;14.77;3.45;;;;;;;;;;4994042;28;20041;-77
2023/03/04 14:12:45;;;;;;;18.10;5.25;;;;;;;;;;4994841;28;20030;-76
2023/03/04 14:15:23;;;;;;;16.73;4.40;;;;;;;;;;4989266;28;20034;-76
2023/03/04 14:17:56;;;;;;;16.90;3.20;;;;;;;;;;4974711;28;20027;-76
2023/03/04 14:20:22;;;;;;;9.55;2.05;;;;;;;;;;4992637;28;20029;-76
2023/03/04 14:22:49;;;;;;;14.77;2.00;;;;;;;;;;4992037;28;20030;-76
2023/03/04 14:25:24;;;;;;;13.15;3.78;;;;;;;;;;4996636;28;20089;-75
2023/03/04 14:27:50;;;;;;;17.75;2.67;;;;;;;;;;4992668;28;20113;-76
2023/03/04 14:30:26;;;;;;;18.15;3.15;;;;;;;;;;4988922;28;20038;-77
2023/03/04 14:32:57;;;;;;;12.70;2.45;;;;;;;;;;4974416;28;20026;-76
2023/03/04 14:35:24;;;;;;;13.45;2.85;;;;;;;;;;4991539;28;20056;-76
2023/03/04 14:37:53;;;;;;;13.57;2.58;;;;;;;;;;4989290;28;20109;-76
2023/03/04 14:40:22;;;;;;;17.42;2.75;;;;;;;;;;4987698;28;20134;-76
2023/03/04 14:42:48;;;;;;;20.70;2.80;;;;;;;;;;4992138;28;20031;-76
2023/03/04 14:45:16;;;;;;;16.27;2.58;;;;;;;;;;4990879;28;20126;-76
2023/03/04 14:47:45;;;;;;;17.13;2.78;;;;;;;;;;4984255;28;20506;-77